createdAt,value
2023-08-17T00:00:11.230Z,24.69
2023-08-17T00:02:39.895Z,24.69
2023-08-17T00:05:09.984Z,24.82
2023-08-17T00:07:38.218Z,24.79
2023-08-17T00:10:06.407Z,24.69
2023-08-17T00:12:34.235Z,24.61
2023-08-17T00:15:01.848Z,24.62
2023-08-17T00:17:29.463Z,24.49
2023-08-17T00:19:57.103Z,24.50
2023-08-17T00:22:26.251Z,24.47
2023-08-17T00:24:53.809Z,24.43
2023-08-17T00:27:21.451Z,24.38
2023-08-17T00:29:49.119Z,24.43
2023-08-17T00:32:18.115Z,24.34
2023-08-17T00:34:46.389Z,24.28
2023-08-17T00:37:13.987Z,24.22
2023-08-17T00:39:42.965Z,24.15
2023-08-17T00:42:11.013Z,24.13
2023-08-17T00:44:38.642Z,24.09
2023-08-17T00:47:06.736Z,24.10
2023-08-17T00:49:35.233Z,24.06
2023-08-17T00:52:04.207Z,24.03
2023-08-17T00:54:32.168Z,24.02
2023-08-17T00:57:01.730Z,23.94
2023-08-17T00:59:36.387Z,23.96
2023-08-17T01:02:04.802Z,23.87
2023-08-17T01:04:33.911Z,23.78
2023-08-17T01:07:01.497Z,23.83
2023-08-17T01:09:29.150Z,23.95
2023-08-17T01:12:07.808Z,23.98
2023-08-17T01:14:45.534Z,23.89
2023-08-17T01:17:19.855Z,23.82
2023-08-17T01:19:48.729Z,23.73
2023-08-17T01:22:19.115Z,23.74
2023-08-17T01:24:48.039Z,23.70
2023-08-17T01:27:15.709Z,23.67
2023-08-17T01:29:43.616Z,23.63
2023-08-17T01:32:18.397Z,23.62
2023-08-17T01:34:54.979Z,23.64
2023-08-17T01:37:25.395Z,23.62
2023-08-17T01:39:57.836Z,23.55
2023-08-17T01:42:26.551Z,23.54
2023-08-17T01:44:54.563Z,23.57
2023-08-17T01:47:25.088Z,23.51
2023-08-17T01:49:52.808Z,23.52
2023-08-17T01:52:20.441Z,23.66
2023-08-17T01:54:48.194Z,23.69
2023-08-17T01:57:17.107Z,23.60
2023-08-17T01:59:44.666Z,23.52
2023-08-17T02:02:12.630Z,23.43
2023-08-17T02:04:40.267Z,23.37
2023-08-17T02:07:07.881Z,23.34
2023-08-17T02:09:35.521Z,23.32
2023-08-17T02:12:03.138Z,23.31
2023-08-17T02:14:32.131Z,23.30
2023-08-17T02:16:59.732Z,23.27
2023-08-17T02:19:27.326Z,23.29
2023-08-17T02:21:54.953Z,23.37
2023-08-17T02:24:22.631Z,23.44
2023-08-17T02:26:50.241Z,23.33
2023-08-17T02:29:17.898Z,23.24
2023-08-17T02:31:47.186Z,23.16
2023-08-17T02:34:14.789Z,23.17
2023-08-17T02:36:42.359Z,23.18
2023-08-17T02:39:10.061Z,23.16
2023-08-17T02:41:37.699Z,23.17
2023-08-17T02:44:05.792Z,23.12
2023-08-17T02:46:33.451Z,23.10
2023-08-17T02:49:02.401Z,23.13
2023-08-17T02:51:30.020Z,23.31
2023-08-17T02:53:57.702Z,23.41
2023-08-17T02:56:25.310Z,23.33
2023-08-17T02:58:52.939Z,23.25
2023-08-17T03:01:20.563Z,23.18
2023-08-17T03:03:48.570Z,23.04
2023-08-17T03:06:17.588Z,23.00
2023-08-17T03:08:45.285Z,22.98
2023-08-17T03:11:13.020Z,22.92
2023-08-17T03:13:40.670Z,22.87
2023-08-17T03:16:08.291Z,22.85
2023-08-17T03:18:35.869Z,22.83
2023-08-17T03:21:03.439Z,22.84
2023-08-17T03:23:32.492Z,22.80
2023-08-17T03:26:00.191Z,22.77
2023-08-17T03:28:29.418Z,22.77
2023-08-17T03:30:57.480Z,22.74
2023-08-17T03:33:25.179Z,22.80
2023-08-17T03:35:52.846Z,22.87
2023-08-17T03:38:20.467Z,22.89
2023-08-17T03:40:49.680Z,22.89
2023-08-17T03:43:17.316Z,22.79
2023-08-17T03:45:45.304Z,22.71
2023-08-17T03:48:13.463Z,22.66
2023-08-17T03:50:41.222Z,22.61
2023-08-17T03:53:08.838Z,22.63
2023-08-17T03:55:36.432Z,22.60
2023-08-17T03:58:05.599Z,22.61
2023-08-17T04:00:33.464Z,22.73
2023-08-17T04:03:01.121Z,22.75
2023-08-17T04:05:29.511Z,22.66
2023-08-17T04:07:57.122Z,22.61
2023-08-17T04:10:24.992Z,22.53
2023-08-17T04:12:53.214Z,22.45
2023-08-17T04:15:22.134Z,22.44
2023-08-17T04:17:49.785Z,22.44
2023-08-17T04:20:19.182Z,22.46
2023-08-17T04:22:46.755Z,22.42
2023-08-17T04:25:14.904Z,22.38
2023-08-17T04:27:42.512Z,22.47
2023-08-17T04:30:11.868Z,22.51
2023-08-17T04:32:40.972Z,22.54
2023-08-17T04:35:09.303Z,22.52
2023-08-17T04:37:36.896Z,22.47
2023-08-17T04:40:06.342Z,22.06
2023-08-17T04:42:33.917Z,22.17
2023-08-17T04:45:01.494Z,22.30
2023-08-17T04:47:30.085Z,22.42
2023-08-17T04:49:59.080Z,22.43
2023-08-17T04:52:26.856Z,22.44
2023-08-17T04:54:54.420Z,22.40
2023-08-17T04:57:22.067Z,22.46
2023-08-17T04:59:49.701Z,22.57
2023-08-17T05:02:17.322Z,22.63
2023-08-17T05:04:45.020Z,22.65
2023-08-17T05:07:13.985Z,22.70
2023-08-17T05:09:41.565Z,22.77
2023-08-17T05:12:10.029Z,22.80
2023-08-17T05:14:37.693Z,22.80
2023-08-17T05:17:05.480Z,22.82
2023-08-17T05:19:33.202Z,22.84
2023-08-17T05:22:00.902Z,22.85
2023-08-17T05:24:29.887Z,22.88
2023-08-17T05:26:57.667Z,22.94
2023-08-17T05:29:25.247Z,23.02
2023-08-17T05:31:52.900Z,23.10
2023-08-17T05:34:20.489Z,23.17
2023-08-17T05:36:48.096Z,23.21
2023-08-17T05:39:15.659Z,23.22
2023-08-17T05:41:44.641Z,23.27
2023-08-17T05:44:12.335Z,23.04
2023-08-17T05:46:40.072Z,22.83
2023-08-17T05:49:07.802Z,22.84
2023-08-17T05:51:35.490Z,22.94
2023-08-17T05:54:03.139Z,22.99
2023-08-17T05:56:30.890Z,23.21
2023-08-17T05:58:59.811Z,23.22
2023-08-17T06:01:27.414Z,23.50
2023-08-17T06:03:55.000Z,23.63
2023-08-17T06:06:22.725Z,23.66
2023-08-17T06:08:50.313Z,23.50
2023-08-17T06:11:17.970Z,23.22
2023-08-17T06:13:45.621Z,23.38
2023-08-17T06:16:14.700Z,23.55
2023-08-17T06:18:42.712Z,23.81
2023-08-17T06:21:10.432Z,23.94
2023-08-17T06:23:38.050Z,23.88
2023-08-17T06:26:05.677Z,24.01
2023-08-17T06:28:33.330Z,24.06
2023-08-17T06:31:01.253Z,24.00
2023-08-17T06:33:30.276Z,24.02
2023-08-17T06:35:58.081Z,23.85
2023-08-17T06:38:25.642Z,24.16
2023-08-17T06:40:53.682Z,24.41
2023-08-17T06:43:21.284Z,24.43
2023-08-17T06:45:48.969Z,24.54
2023-08-17T06:48:16.663Z,24.73
2023-08-17T06:50:45.621Z,24.77
2023-08-17T06:53:13.437Z,24.63
2023-08-17T06:55:41.104Z,24.83
2023-08-17T06:58:08.723Z,25.02
2023-08-17T07:00:36.649Z,25.14
2023-08-17T07:03:05.267Z,24.91
2023-08-17T07:05:32.963Z,25.21
2023-08-17T07:08:02.729Z,25.40
2023-08-17T07:10:30.364Z,25.47
2023-08-17T07:12:58.070Z,25.03
2023-08-17T07:15:25.702Z,25.17
2023-08-17T07:17:53.719Z,25.30
2023-08-17T07:20:21.406Z,25.31
2023-08-17T07:22:49.074Z,25.48
2023-08-17T07:25:18.165Z,25.69
2023-08-17T07:27:45.855Z,25.56
2023-08-17T07:30:14.416Z,25.84
2023-08-17T07:32:42.165Z,26.07
2023-08-17T07:35:10.567Z,25.73
2023-08-17T07:37:38.234Z,26.07
2023-08-17T07:40:06.951Z,26.23
2023-08-17T07:42:36.092Z,26.24
2023-08-17T07:45:05.645Z,25.91
2023-08-17T07:47:33.301Z,26.04
2023-08-17T07:50:00.991Z,26.36
2023-08-17T07:52:28.548Z,26.31
2023-08-17T07:54:56.249Z,26.43
2023-08-17T07:57:24.419Z,26.33
2023-08-17T07:59:54.796Z,26.57
2023-08-17T08:02:22.426Z,26.77
2023-08-17T08:04:50.087Z,26.90
2023-08-17T08:07:17.787Z,27.13
2023-08-17T08:09:45.398Z,27.34
2023-08-17T08:12:13.031Z,27.48
2023-08-17T08:14:40.616Z,27.63
2023-08-17T08:17:09.598Z,27.62
2023-08-17T08:19:37.273Z,27.78
2023-08-17T08:22:04.899Z,27.92
2023-08-17T08:24:38.330Z,27.67
2023-08-17T08:27:06.607Z,28.07
2023-08-17T08:29:34.685Z,28.17
2023-08-17T08:32:03.922Z,28.18
2023-08-17T08:34:33.037Z,27.66
2023-08-17T08:37:00.691Z,27.52
2023-08-17T08:39:28.620Z,27.77
2023-08-17T08:41:56.692Z,28.26
2023-08-17T08:44:24.419Z,28.55
2023-08-17T08:46:54.714Z,28.74
2023-08-17T08:49:25.441Z,28.94
2023-08-17T08:51:54.535Z,29.20
2023-08-17T08:54:24.200Z,29.33
2023-08-17T08:56:56.763Z,29.53
2023-08-17T08:59:27.999Z,29.38
2023-08-17T09:01:57.478Z,29.27
2023-08-17T09:04:25.628Z,29.40
2023-08-17T09:06:56.014Z,29.72
2023-08-17T09:09:29.429Z,29.75
2023-08-17T09:11:57.632Z,29.83
2023-08-17T09:14:25.386Z,29.39
2023-08-17T09:16:53.151Z,29.18
2023-08-17T09:19:21.110Z,29.52
2023-08-17T09:21:51.510Z,29.46
2023-08-17T09:24:20.669Z,29.25
2023-08-17T09:26:48.362Z,29.25
2023-08-17T09:29:20.218Z,29.07
2023-08-17T09:31:48.168Z,28.93
2023-08-17T09:34:17.746Z,28.83
2023-08-17T09:36:48.218Z,28.86
2023-08-17T09:39:17.680Z,28.86
2023-08-17T09:41:46.806Z,29.21
2023-08-17T09:44:14.676Z,29.42
2023-08-17T09:46:45.941Z,29.61
2023-08-17T09:49:13.583Z,29.14
2023-08-17T09:51:44.523Z,29.21
2023-08-17T09:54:22.061Z,29.23
2023-08-17T09:56:51.788Z,29.07
2023-08-17T09:59:19.491Z,29.66
2023-08-17T10:01:56.806Z,30.00
2023-08-17T10:04:26.093Z,30.04
2023-08-17T10:07:00.250Z,30.28
2023-08-17T10:09:33.353Z,30.44
2023-08-17T10:12:06.020Z,30.72
2023-08-17T10:14:38.752Z,30.81
2023-08-17T10:17:11.381Z,30.84
2023-08-17T10:19:46.092Z,30.73
2023-08-17T10:22:19.789Z,30.14
2023-08-17T10:24:48.452Z,30.39
2023-08-17T10:27:18.945Z,30.56
2023-08-17T10:29:47.159Z,30.70
2023-08-17T10:32:16.953Z,30.67
2023-08-17T10:34:45.817Z,30.74
2023-08-17T10:37:14.634Z,30.89
2023-08-17T10:39:47.230Z,30.99
2023-08-17T10:42:20.790Z,31.13
2023-08-17T10:44:50.543Z,31.29
2023-08-17T10:47:22.513Z,31.04
2023-08-17T10:49:51.053Z,31.19
2023-08-17T10:52:28.326Z,31.34
2023-08-17T10:54:57.027Z,31.53
2023-08-17T10:57:33.129Z,31.38
2023-08-17T11:00:22.060Z,31.06
2023-08-17T11:02:56.651Z,31.03
2023-08-17T11:05:42.145Z,31.03
2023-08-17T11:08:11.897Z,30.53
2023-08-17T11:10:40.166Z,30.70
2023-08-17T11:13:08.360Z,30.83
2023-08-17T11:15:44.841Z,30.98
2023-08-17T11:18:13.730Z,31.10
2023-08-17T11:20:43.560Z,31.40
2023-08-17T11:23:12.492Z,31.64
2023-08-17T11:25:40.553Z,31.71
2023-08-17T11:28:09.490Z,31.71
2023-08-17T11:30:39.940Z,31.88
2023-08-17T11:33:09.730Z,31.95
2023-08-17T11:35:37.902Z,31.48
2023-08-17T11:38:08.954Z,31.54
2023-08-17T11:40:37.543Z,31.65
2023-08-17T11:43:06.073Z,31.93
2023-08-17T11:45:34.141Z,32.02
2023-08-17T11:48:02.510Z,32.33
2023-08-17T11:50:31.742Z,32.42
2023-08-17T11:53:01.554Z,32.14
2023-08-17T11:55:29.975Z,31.55
2023-08-17T11:57:57.760Z,31.35
2023-08-17T12:00:26.676Z,31.57
2023-08-17T12:02:55.228Z,31.42
2023-08-17T12:05:24.369Z,31.26
2023-08-17T12:07:55.296Z,30.94
2023-08-17T12:10:24.395Z,30.72
2023-08-17T12:12:52.204Z,30.82
2023-08-17T12:15:20.063Z,31.06
2023-08-17T12:17:48.544Z,31.07
2023-08-17T12:20:19.984Z,31.33
2023-08-17T12:22:47.758Z,31.22
2023-08-17T12:25:17.238Z,31.22
2023-08-17T12:27:44.980Z,31.38
2023-08-17T12:30:14.591Z,31.40
2023-08-17T12:32:42.267Z,31.65
2023-08-17T12:35:10.240Z,31.66
2023-08-17T12:37:37.847Z,31.70
2023-08-17T12:40:06.260Z,31.58
2023-08-17T12:42:35.289Z,31.28
2023-08-17T12:45:05.597Z,31.13
2023-08-17T12:47:35.351Z,30.93
2023-08-17T12:50:04.726Z,30.95
2023-08-17T12:52:32.464Z,31.32
2023-08-17T12:55:00.207Z,31.58
2023-08-17T12:57:27.863Z,31.77
2023-08-17T12:59:56.890Z,31.86
2023-08-17T13:02:25.935Z,31.99
2023-08-17T13:04:53.873Z,32.38
2023-08-17T13:07:21.482Z,32.68
2023-08-17T13:09:49.102Z,32.90
2023-08-17T13:12:16.972Z,32.99
2023-08-17T13:14:44.773Z,32.76
2023-08-17T13:17:15.565Z,32.05
2023-08-17T13:19:43.337Z,31.78
2023-08-17T13:22:11.412Z,31.98
2023-08-17T13:24:41.056Z,32.19
2023-08-17T13:27:08.857Z,32.12
2023-08-17T13:29:39.392Z,32.21
2023-08-17T13:32:07.232Z,32.19
2023-08-17T13:34:36.397Z,32.13
2023-08-17T13:37:04.470Z,31.82
2023-08-17T13:39:32.160Z,31.66
2023-08-17T13:41:59.815Z,31.54
2023-08-17T13:44:27.376Z,31.36
2023-08-17T13:46:54.956Z,31.22
2023-08-17T13:49:22.536Z,31.30
2023-08-17T13:51:51.425Z,31.28
2023-08-17T13:54:19.912Z,31.41
2023-08-17T13:56:47.509Z,31.48
2023-08-17T13:59:15.277Z,31.65
2023-08-17T14:01:42.899Z,31.68
2023-08-17T14:04:12.530Z,31.74
2023-08-17T14:06:40.893Z,31.74
2023-08-17T14:09:09.789Z,31.76
2023-08-17T14:11:37.432Z,31.83
2023-08-17T14:14:05.177Z,31.80
2023-08-17T14:16:33.123Z,31.67
2023-08-17T14:19:00.837Z,31.72
2023-08-17T14:21:28.377Z,31.61
2023-08-17T14:23:55.968Z,31.30
2023-08-17T14:26:24.848Z,30.84
2023-08-17T14:28:52.390Z,31.11
2023-08-17T14:31:20.564Z,31.18
2023-08-17T14:33:48.982Z,30.61
2023-08-17T14:38:47.314Z,30.63
2023-08-17T14:41:14.913Z,30.57
2023-08-17T14:43:43.831Z,30.50
2023-08-17T14:48:42.208Z,30.69
2023-08-17T14:51:09.958Z,30.71
2023-08-17T14:53:40.166Z,30.02
2023-08-17T14:56:08.012Z,29.68
2023-08-17T14:58:35.599Z,29.63
2023-08-17T15:01:05.212Z,29.54
2023-08-17T15:03:32.966Z,29.66
2023-08-17T15:06:00.831Z,29.32
2023-08-17T15:08:28.455Z,29.38
2023-08-17T15:10:56.063Z,29.08
2023-08-17T15:13:23.800Z,28.70
2023-08-17T15:15:51.711Z,28.61
2023-08-17T15:18:22.854Z,28.61
2023-08-17T15:20:51.300Z,28.06
2023-08-17T15:23:19.258Z,28.03
2023-08-17T15:25:46.891Z,28.04
2023-08-17T15:28:14.474Z,28.23
2023-08-17T15:30:42.010Z,28.20
2023-08-17T15:33:10.769Z,28.13
2023-08-17T15:35:39.777Z,27.82
2023-08-17T15:38:07.364Z,27.77
2023-08-17T15:40:34.975Z,27.98
2023-08-17T15:43:02.539Z,28.28
2023-08-17T15:45:30.122Z,28.36
2023-08-17T15:47:57.717Z,28.56
2023-08-17T15:50:25.368Z,28.28
2023-08-17T15:52:54.275Z,28.37
2023-08-17T15:55:21.859Z,28.28
2023-08-17T15:57:50.964Z,28.45
2023-08-17T16:00:19.387Z,28.22
2023-08-17T16:02:47.433Z,28.32
2023-08-17T16:05:15.151Z,28.11
2023-08-17T16:07:42.702Z,27.86
2023-08-17T16:10:12.054Z,27.76
2023-08-17T16:12:42.990Z,27.47
2023-08-17T16:15:11.994Z,27.42
2023-08-17T16:17:39.713Z,27.63
2023-08-17T16:20:08.990Z,27.67
2023-08-17T16:22:36.917Z,27.83
2023-08-17T16:25:05.103Z,27.73
2023-08-17T16:27:38.853Z,27.72
2023-08-17T16:30:08.287Z,27.94
2023-08-17T16:32:36.032Z,28.18
2023-08-17T16:35:04.062Z,28.40
2023-08-17T16:37:31.828Z,28.62
2023-08-17T16:39:59.373Z,28.72
2023-08-17T16:42:27.034Z,28.80
2023-08-17T16:44:56.046Z,28.85
2023-08-17T16:47:27.546Z,28.77
2023-08-17T16:49:56.233Z,28.65
2023-08-17T16:52:24.993Z,28.54
2023-08-17T16:54:52.626Z,28.66
2023-08-17T16:57:20.317Z,28.47
2023-08-17T16:59:47.859Z,28.53
2023-08-17T17:02:16.808Z,28.54
2023-08-17T17:04:44.983Z,28.69
2023-08-17T17:07:12.580Z,28.81
2023-08-17T17:09:40.111Z,28.81
2023-08-17T17:12:08.508Z,28.97
2023-08-17T17:14:36.237Z,29.19
2023-08-17T17:17:04.174Z,29.35
2023-08-17T17:19:33.292Z,29.35
2023-08-17T17:22:00.859Z,29.30
2023-08-17T17:24:28.417Z,29.11
2023-08-17T17:26:55.975Z,29.04
2023-08-17T17:29:23.545Z,28.97
2023-08-17T17:31:51.935Z,28.77
2023-08-17T17:34:20.728Z,28.82
2023-08-17T17:36:50.300Z,28.78
2023-08-17T17:39:17.979Z,28.72
2023-08-17T17:41:45.547Z,28.53
2023-08-17T17:44:13.145Z,28.52
2023-08-17T17:46:40.743Z,28.53
2023-08-17T17:49:08.396Z,28.41
2023-08-17T17:51:35.962Z,28.29
2023-08-17T17:54:05.339Z,28.13
2023-08-17T17:56:40.410Z,27.80
2023-08-17T17:59:10.994Z,27.37
2023-08-17T18:01:38.980Z,27.37
2023-08-17T18:04:06.938Z,27.44
2023-08-17T18:06:35.215Z,27.34
2023-08-17T18:09:03.340Z,27.19
2023-08-17T18:11:32.485Z,27.11
2023-08-17T18:14:00.046Z,27.16
2023-08-17T18:16:27.718Z,27.05
2023-08-17T18:18:55.369Z,26.82
2023-08-17T18:21:22.910Z,26.83
2023-08-17T18:23:51.345Z,26.51
2023-08-17T18:26:18.905Z,26.30
2023-08-17T18:28:47.852Z,26.53
2023-08-17T18:31:15.467Z,26.68
2023-08-17T18:33:43.203Z,26.78
2023-08-17T18:36:10.769Z,26.86
2023-08-17T18:38:38.346Z,26.73
2023-08-17T18:41:09.859Z,26.20
2023-08-17T18:43:37.821Z,26.03
2023-08-17T18:46:07.540Z,25.99
2023-08-17T18:48:35.310Z,25.81
2023-08-17T18:51:02.984Z,25.89
2023-08-17T18:53:30.568Z,26.01
2023-08-17T18:55:58.211Z,26.10
2023-08-17T18:58:26.560Z,25.79
2023-08-17T19:00:54.275Z,25.40
2023-08-17T19:03:23.399Z,25.12
2023-08-17T19:05:51.135Z,24.87
2023-08-17T19:08:18.680Z,24.58
2023-08-17T19:10:46.258Z,24.54
2023-08-17T19:13:13.806Z,24.45
2023-08-17T19:15:41.850Z,24.21
2023-08-17T19:18:10.497Z,24.22
2023-08-17T19:20:39.748Z,24.23
2023-08-17T19:23:07.720Z,24.41
2023-08-17T19:25:35.351Z,24.51
2023-08-17T19:28:03.014Z,24.56
2023-08-17T19:30:30.623Z,24.68
2023-08-17T19:32:59.451Z,24.82
2023-08-17T19:35:27.682Z,24.78
2023-08-17T19:37:57.129Z,24.86
2023-08-17T19:40:25.000Z,24.96
2023-08-17T19:42:52.677Z,25.00
2023-08-17T19:45:20.337Z,24.84
2023-08-17T19:47:48.223Z,24.71
2023-08-17T19:50:16.310Z,24.67
2023-08-17T19:52:44.017Z,24.64
2023-08-17T19:55:14.475Z,24.62
2023-08-17T19:57:42.409Z,24.56
2023-08-17T20:00:12.343Z,24.56
2023-08-17T20:02:40.061Z,24.49
2023-08-17T20:05:09.682Z,24.39
2023-08-17T20:07:37.711Z,24.35
2023-08-17T20:10:06.573Z,24.37
2023-08-17T20:12:35.537Z,24.37
2023-08-17T20:15:03.831Z,24.30
2023-08-17T20:17:31.639Z,24.29
2023-08-17T20:19:59.594Z,24.33
2023-08-17T20:22:27.194Z,24.43
2023-08-17T20:24:54.879Z,24.43
2023-08-17T20:27:22.722Z,24.39
2023-08-17T20:29:51.643Z,24.20
2023-08-17T20:32:19.520Z,24.12
2023-08-17T20:34:47.151Z,24.05
2023-08-17T20:37:14.711Z,23.99
2023-08-17T20:39:42.364Z,23.99
2023-08-17T20:42:10.882Z,23.84
2023-08-17T20:44:38.591Z,23.76
2023-08-17T20:47:09.748Z,23.69
2023-08-17T20:49:38.306Z,23.65
2023-08-17T20:52:06.047Z,23.68
2023-08-17T20:54:33.795Z,23.66
2023-08-17T20:57:01.358Z,23.76
2023-08-17T20:59:28.914Z,23.71
2023-08-17T21:01:56.468Z,23.74
2023-08-17T21:04:25.811Z,23.66
2023-08-17T21:06:53.374Z,23.58
2023-08-17T21:09:21.956Z,23.65
2023-08-17T21:11:49.596Z,23.59
2023-08-17T21:14:17.142Z,23.47
2023-08-17T21:16:44.689Z,23.38
2023-08-17T21:19:12.363Z,23.38
2023-08-17T21:21:41.271Z,23.41
2023-08-17T21:24:08.892Z,23.36
2023-08-17T21:26:36.572Z,23.28
2023-08-17T21:29:04.428Z,23.20
2023-08-17T21:31:32.596Z,23.12
2023-08-17T21:34:00.513Z,23.05
2023-08-17T21:36:28.101Z,22.99
2023-08-17T21:38:58.383Z,22.92
2023-08-17T21:41:26.041Z,22.89
2023-08-17T21:43:54.197Z,22.82
2023-08-17T21:46:21.927Z,22.85
2023-08-17T21:48:49.629Z,22.85
2023-08-17T21:51:17.200Z,22.78
2023-08-17T21:53:44.787Z,22.71
2023-08-17T21:56:14.799Z,22.66
2023-08-17T21:58:42.437Z,22.65
2023-08-17T22:01:10.215Z,22.62
2023-08-17T22:03:37.928Z,22.63
2023-08-17T22:06:06.966Z,22.66
2023-08-17T22:08:34.728Z,22.68
2023-08-17T22:11:02.335Z,22.66
2023-08-17T22:13:31.290Z,22.63
2023-08-17T22:15:58.936Z,22.59
2023-08-17T22:18:26.773Z,22.65
2023-08-17T22:20:54.365Z,22.66
2023-08-17T22:23:22.213Z,22.58
2023-08-17T22:25:49.798Z,22.49
2023-08-17T22:28:17.384Z,22.46
2023-08-17T22:30:46.339Z,22.55
2023-08-17T22:33:13.967Z,22.54
2023-08-17T22:35:41.549Z,22.50
2023-08-17T22:38:09.131Z,22.46
2023-08-17T22:40:36.759Z,22.46
2023-08-17T22:43:04.460Z,22.35
2023-08-17T22:45:32.076Z,22.28
2023-08-17T22:48:01.062Z,22.25
2023-08-17T22:50:28.687Z,22.23
2023-08-17T22:52:56.316Z,22.24
2023-08-17T22:55:24.297Z,22.10
2023-08-17T22:57:51.969Z,22.11
2023-08-17T23:00:20.419Z,21.99
2023-08-17T23:02:48.282Z,21.91
2023-08-17T23:05:17.740Z,21.91
2023-08-17T23:07:45.341Z,21.85
2023-08-17T23:10:12.978Z,21.87
2023-08-17T23:12:40.536Z,21.88
2023-08-17T23:15:08.691Z,21.85
2023-08-17T23:17:36.446Z,21.85
2023-08-17T23:20:04.652Z,21.82
2023-08-17T23:22:33.630Z,21.91
2023-08-17T23:25:01.224Z,21.88
2023-08-17T23:27:29.035Z,21.82
2023-08-17T23:29:56.942Z,21.77
2023-08-17T23:32:28.309Z,21.69
2023-08-17T23:34:56.644Z,21.67
2023-08-17T23:37:24.417Z,21.65
2023-08-17T23:39:53.414Z,21.61
2023-08-17T23:42:21.371Z,21.60
2023-08-17T23:44:48.944Z,21.58
2023-08-17T23:47:16.536Z,21.60
2023-08-17T23:49:45.496Z,21.70
2023-08-17T23:52:13.176Z,21.76
2023-08-17T23:54:40.750Z,21.76
2023-08-17T23:57:09.677Z,21.63
2023-08-17T23:59:37.239Z,21.56
